sensor_id;sensor_type;location;lat;lon;timestamp;P1;durP1;ratioP1;P2;durP2;ratioP2
38190;SDS011;25191;47.510;19.124;2023-04-01T00:09:40;829.78;;;757.75;;
38190;SDS011;25191;47.510;19.124;2023-04-01T00:19:41;852.03;;;778.67;;
38190;SDS011;25191;47.510;19.124;2023-04-01T00:29:42;822.37;;;751.13;;
38190;SDS011;25191;47.510;19.124;2023-04-01T00:39:44;734.00;;;669.07;;
38190;SDS011;25191;47.510;19.124;2023-04-01T00:49:48;693.85;;;631.92;;
38190;SDS011;25191;47.510;19.124;2023-04-01T00:59:52;758.95;;;692.38;;
38190;SDS011;25191;47.510;19.124;2023-04-01T01:30:38;889.10;;;813.40;;
38190;SDS011;25191;47.510;19.124;2023-04-01T01:40:51;907.08;;;830.38;;
38190;SDS011;25191;47.510;19.124;2023-04-01T01:50:54;793.05;;;723.85;;
38190;SDS011;25191;47.510;19.124;2023-04-01T02:00:55;887.30;;;811.87;;
38190;SDS011;25191;47.510;19.124;2023-04-01T02:11:01;945.42;;;866.22;;
38190;SDS011;25191;47.510;19.124;2023-04-01T02:21:05;1011.17;;;928.38;;
38190;SDS011;25191;47.510;19.124;2023-04-01T02:31:08;870.00;;;795.67;;
38190;SDS011;25191;47.510;19.124;2023-04-01T02:41:10;865.40;;;791.33;;
38190;SDS011;25191;47.510;19.124;2023-04-01T02:51:21;1031.45;;;947.53;;
38190;SDS011;25191;47.510;19.124;2023-04-01T03:01:21;974.55;;;893.97;;
38190;SDS011;25191;47.510;19.124;2023-04-01T03:11:23;902.22;;;825.97;;
38190;SDS011;25191;47.510;19.124;2023-04-01T03:21:23;1042.13;;;957.65;;
38190;SDS011;25191;47.510;19.124;2023-04-01T03:31:24;1027.28;;;943.67;;
38190;SDS011;25191;47.510;19.124;2023-04-01T03:41:24;1030.30;;;946.45;;
38190;SDS011;25191;47.510;19.124;2023-04-01T03:51:27;1078.65;;;992.30;;
38190;SDS011;25191;47.510;19.124;2023-04-01T04:01:34;1047.72;;;962.92;;
38190;SDS011;25191;47.510;19.124;2023-04-01T04:11:35;1034.35;;;950.53;;
38190;SDS011;25191;47.510;19.124;2023-04-01T04:21:35;1080.65;;;994.17;;
38190;SDS011;25191;47.510;19.124;2023-04-01T04:31:36;1084.90;;;996.80;;
38190;SDS011;25191;47.510;19.124;2023-04-01T04:41:36;1129.65;;;999.90;;
38190;SDS011;25191;47.510;19.124;2023-04-01T04:51:37;1153.68;;;999.90;;
38190;SDS011;25191;47.510;19.124;2023-04-01T05:01:38;1078.45;;;983.83;;
38190;SDS011;25191;47.510;19.124;2023-04-01T05:11:39;431.05;;;388.70;;
38190;SDS011;25191;47.510;19.124;2023-04-01T05:21:40;490.25;;;442.90;;
38190;SDS011;25191;47.510;19.124;2023-04-01T05:31:40;481.08;;;434.55;;
38190;SDS011;25191;47.510;19.124;2023-04-01T05:41:41;514.15;;;465.13;;
38190;SDS011;25191;47.510;19.124;2023-04-01T05:51:41;497.33;;;449.48;;
38190;SDS011;25191;47.510;19.124;2023-04-01T06:01:42;501.20;;;453.08;;
38190;SDS011;25191;47.510;19.124;2023-04-01T06:32:42;541.03;;;490.05;;
38190;SDS011;25191;47.510;19.124;2023-04-01T06:43:07;497.33;;;449.23;;
38190;SDS011;25191;47.510;19.124;2023-04-01T07:14:06;533.92;;;483.23;;
38190;SDS011;25191;47.510;19.124;2023-04-01T07:24:27;583.43;;;529.17;;
38190;SDS011;25191;47.510;19.124;2023-04-01T08:15:26;597.53;;;541.90;;
38190;SDS011;25191;47.510;19.124;2023-04-01T08:25:31;666.03;;;605.50;;
38190;SDS011;25191;47.510;19.124;2023-04-01T08:35:37;638.00;;;579.20;;
38190;SDS011;25191;47.510;19.124;2023-04-01T08:45:44;646.65;;;587.45;;
38190;SDS011;25191;47.510;19.124;2023-04-01T08:55:56;627.50;;;569.95;;
38190;SDS011;25191;47.510;19.124;2023-04-01T10:19:03;243.77;;;220.88;;
38190;SDS011;25191;47.510;19.124;2023-04-01T10:29:47;167.75;;;153.00;;
38190;SDS011;25191;47.510;19.124;2023-04-01T11:41:32;162.35;;;148.18;;
38190;SDS011;25191;47.510;19.124;2023-04-01T12:22:44;193.65;;;175.88;;
38190;SDS011;25191;47.510;19.124;2023-04-01T12:54:04;227.95;;;206.43;;
38190;SDS011;25191;47.510;19.124;2023-04-01T13:04:34;294.55;;;265.83;;
38190;SDS011;25191;47.510;19.124;2023-04-01T13:45:23;543.88;;;491.92;;
38190;SDS011;25191;47.510;19.124;2023-04-01T13:55:32;601.20;;;545.05;;
38190;SDS011;25191;47.510;19.124;2023-04-01T14:06:06;596.50;;;540.70;;
38190;SDS011;25191;47.510;19.124;2023-04-01T14:37:21;716.50;;;652.03;;
38190;SDS011;25191;47.510;19.124;2023-04-01T14:47:44;781.20;;;711.95;;
38190;SDS011;25191;47.510;19.124;2023-04-01T14:57:58;838.28;;;764.75;;
38190;SDS011;25191;47.510;19.124;2023-04-01T15:08:11;536.58;;;484.38;;
38190;SDS011;25191;47.510;19.124;2023-04-01T17:01:26;723.53;;;658.38;;
38190;SDS011;25191;47.510;19.124;2023-04-01T17:11:34;648.78;;;589.08;;
38190;SDS011;25191;47.510;19.124;2023-04-01T18:03:50;741.17;;;675.00;;
38190;SDS011;25191;47.510;19.124;2023-04-01T18:24:35;780.00;;;711.03;;
38190;SDS011;25191;47.510;19.124;2023-04-01T18:44:57;839.17;;;765.90;;
38190;SDS011;25191;47.510;19.124;2023-04-01T19:05:38;757.08;;;689.95;;
38190;SDS011;25191;47.510;19.124;2023-04-01T19:26:32;730.45;;;665.22;;
38190;SDS011;25191;47.510;19.124;2023-04-01T19:36:48;973.13;;;891.17;;
38190;SDS011;25191;47.510;19.124;2023-04-01T19:58:00;874.33;;;799.03;;
38190;SDS011;25191;47.510;19.124;2023-04-01T20:08:21;790.88;;;721.47;;
38190;SDS011;25191;47.510;19.124;2023-04-01T20:39:31;848.85;;;775.40;;
38190;SDS011;25191;47.510;19.124;2023-04-01T20:49:59;791.83;;;722.45;;
38190;SDS011;25191;47.510;19.124;2023-04-01T21:10:41;825.22;;;753.42;;
38190;SDS011;25191;47.510;19.124;2023-04-01T21:20:49;872.22;;;797.55;;
38190;SDS011;25191;47.510;19.124;2023-04-01T22:42:53;849.13;;;776.22;;
38190;SDS011;25191;47.510;19.124;2023-04-01T23:03:53;892.03;;;816.50;;
38190;SDS011;25191;47.510;19.124;2023-04-01T23:14:23;871.92;;;797.60;;
38190;SDS011;25191;47.510;19.124;2023-04-01T23:34:46;865.95;;;792.03;;
38190;SDS011;25191;47.510;19.124;2023-04-01T23:44:50;926.08;;;848.25;;
38190;SDS011;25191;47.510;19.124;2023-04-01T23:55:08;814.50;;;743.83;;
